sensor_id;sensor_type;location;lat;lon;timestamp;temperature;humidity
66119;DHT22;52912;48.564;9.302;2024-01-15T00:01:15;-2.16;89.06
66119;DHT22;52912;48.564;9.302;2024-01-15T00:03:40;-2.02;88.74
66119;DHT22;52912;48.564;9.302;2024-01-15T00:06:06;-1.97;88.55
66119;DHT22;52912;48.564;9.302;2024-01-15T00:08:31;-1.94;88.58
66119;DHT22;52912;48.564;9.302;2024-01-15T00:10:57;-1.91;88.48
66119;DHT22;52912;48.564;9.302;2024-01-15T00:13:23;-1.84;88.32
66119;DHT22;52912;48.564;9.302;2024-01-15T00:15:49;-1.85;88.40
66119;DHT22;52912;48.564;9.302;2024-01-15T00:18:14;-1.78;88.15
66119;DHT22;52912;48.564;9.302;2024-01-15T00:20:40;-1.72;87.92
66119;DHT22;52912;48.564;9.302;2024-01-15T00:23:05;-1.67;87.75
66119;DHT22;52912;48.564;9.302;2024-01-15T00:25:30;-1.72;87.86
66119;DHT22;52912;48.564;9.302;2024-01-15T00:27:56;-1.68;87.78
66119;DHT22;52912;48.564;9.302;2024-01-15T00:30:23;-1.63;87.62
66119;DHT22;52912;48.564;9.302;2024-01-15T00:32:48;-1.66;87.57
66119;DHT22;52912;48.564;9.302;2024-01-15T00:35:14;-1.67;87.90
66119;DHT22;52912;48.564;9.302;2024-01-15T00:37:39;-1.61;88.00
66119;DHT22;52912;48.564;9.302;2024-01-15T00:40:06;-1.54;87.78
66119;DHT22;52912;48.564;9.302;2024-01-15T00:42:31;-1.59;87.67
66119;DHT22;52912;48.564;9.302;2024-01-15T00:44:56;-1.59;87.89
66119;DHT22;52912;48.564;9.302;2024-01-15T00:47:23;-1.56;87.92
66119;DHT22;52912;48.564;9.302;2024-01-15T00:49:49;-1.53;87.74
66119;DHT22;52912;48.564;9.302;2024-01-15T00:52:14;-1.53;87.87
66119;DHT22;52912;48.564;9.302;2024-01-15T00:54:40;-1.49;87.86
66119;DHT22;52912;48.564;9.302;2024-01-15T00:57:05;-1.47;87.91
66119;DHT22;52912;48.564;9.302;2024-01-15T00:59:30;-1.39;87.72
66119;DHT22;52912;48.564;9.302;2024-01-15T01:01:56;-1.33;87.51
66119;DHT22;52912;48.564;9.302;2024-01-15T01:04:23;-1.40;87.71
66119;DHT22;52912;48.564;9.302;2024-01-15T01:06:48;-1.43;87.78
66119;DHT22;52912;48.564;9.302;2024-01-15T01:09:13;-1.44;87.87
66119;DHT22;52912;48.564;9.302;2024-01-15T01:11:39;-1.36;87.82
66119;DHT22;52912;48.564;9.302;2024-01-15T01:14:05;-1.36;87.74
66119;DHT22;52912;48.564;9.302;2024-01-15T01:16:30;-1.35;87.65
66119;DHT22;52912;48.564;9.302;2024-01-15T01:18:55;-1.32;87.59
66119;DHT22;52912;48.564;9.302;2024-01-15T01:21:22;-1.28;87.50
66119;DHT22;52912;48.564;9.302;2024-01-15T01:23:48;-1.28;87.51
66119;DHT22;52912;48.564;9.302;2024-01-15T01:26:15;-1.29;87.50
66119;DHT22;52912;48.564;9.302;2024-01-15T01:28:40;-1.25;87.58
66119;DHT22;52912;48.564;9.302;2024-01-15T01:31:06;-1.25;87.57
66119;DHT22;52912;48.564;9.302;2024-01-15T01:33:31;-1.25;87.68
66119;DHT22;52912;48.564;9.302;2024-01-15T01:35:57;-1.24;87.41
66119;DHT22;52912;48.564;9.302;2024-01-15T01:38:23;-1.25;87.53
66119;DHT22;52912;48.564;9.302;2024-01-15T01:40:49;-1.28;87.63
66119;DHT22;52912;48.564;9.302;2024-01-15T01:43:14;-1.18;87.60
66119;DHT22;52912;48.564;9.302;2024-01-15T01:45:40;-1.09;87.38
66119;DHT22;52912;48.564;9.302;2024-01-15T01:48:05;-1.18;87.76
66119;DHT22;52912;48.564;9.302;2024-01-15T01:50:31;-1.12;87.54
66119;DHT22;52912;48.564;9.302;2024-01-15T01:52:57;-1.22;87.87
66119;DHT22;52912;48.564;9.302;2024-01-15T01:55:26;-1.19;87.73
66119;DHT22;52912;48.564;9.302;2024-01-15T01:57:52;-1.20;87.95
66119;DHT22;52912;48.564;9.302;2024-01-15T02:00:18;-1.22;88.07
66119;DHT22;52912;48.564;9.302;2024-01-15T02:02:43;-1.22;87.99
66119;DHT22;52912;48.564;9.302;2024-01-15T02:05:09;-1.20;88.05
66119;DHT22;52912;48.564;9.302;2024-01-15T02:07:35;-1.20;88.24
66119;DHT22;52912;48.564;9.302;2024-01-15T02:10:00;-1.20;88.06
66119;DHT22;52912;48.564;9.302;2024-01-15T02:12:27;-1.26;88.14
66119;DHT22;52912;48.564;9.302;2024-01-15T02:14:52;-1.24;88.22
66119;DHT22;52912;48.564;9.302;2024-01-15T02:17:18;-1.25;88.22
66119;DHT22;52912;48.564;9.302;2024-01-15T02:19:44;-1.29;88.31
66119;DHT22;52912;48.564;9.302;2024-01-15T02:22:09;-1.29;88.42
66119;DHT22;52912;48.564;9.302;2024-01-15T02:24:36;-1.25;88.37
66119;DHT22;52912;48.564;9.302;2024-01-15T02:27:02;-1.29;88.38
66119;DHT22;52912;48.564;9.302;2024-01-15T02:29:27;-1.26;88.29
66119;DHT22;52912;48.564;9.302;2024-01-15T02:31:53;-1.28;88.37
66119;DHT22;52912;48.564;9.302;2024-01-15T02:34:18;-1.32;88.52
66119;DHT22;52912;48.564;9.302;2024-01-15T02:36:43;-1.26;88.39
66119;DHT22;52912;48.564;9.302;2024-01-15T02:39:09;-1.29;88.49
66119;DHT22;52912;48.564;9.302;2024-01-15T02:41:36;-1.33;88.69
66119;DHT22;52912;48.564;9.302;2024-01-15T02:44:01;-1.33;88.59
66119;DHT22;52912;48.564;9.302;2024-01-15T02:46:27;-1.38;88.68
66119;DHT22;52912;48.564;9.302;2024-01-15T02:48:52;-1.31;88.71
66119;DHT22;52912;48.564;9.302;2024-01-15T02:51:17;-1.32;88.64
66119;DHT22;52912;48.564;9.302;2024-01-15T02:53:43;-1.35;88.86
66119;DHT22;52912;48.564;9.302;2024-01-15T02:56:08;-1.33;88.83
66119;DHT22;52912;48.564;9.302;2024-01-15T02:58:35;-1.29;88.80
66119;DHT22;52912;48.564;9.302;2024-01-15T03:01:00;-1.19;88.78
66119;DHT22;52912;48.564;9.302;2024-01-15T03:03:26;-1.19;88.69
66119;DHT22;52912;48.564;9.302;2024-01-15T03:05:51;-1.26;88.91
66119;DHT22;52912;48.564;9.302;2024-01-15T03:08:17;-1.25;88.81
66119;DHT22;52912;48.564;9.302;2024-01-15T03:10:42;-1.22;88.87
66119;DHT22;52912;48.564;9.302;2024-01-15T03:13:08;-1.25;88.91
66119;DHT22;52912;48.564;9.302;2024-01-15T03:15:35;-1.28;89.17
66119;DHT22;52912;48.564;9.302;2024-01-15T03:18:00;-1.25;89.22
66119;DHT22;52912;48.564;9.302;2024-01-15T03:20:25;-1.25;89.01
66119;DHT22;52912;48.564;9.302;2024-01-15T03:22:51;-1.22;89.10
66119;DHT22;52912;48.564;9.302;2024-01-15T03:25:16;-1.25;89.02
66119;DHT22;52912;48.564;9.302;2024-01-15T03:27:42;-1.28;89.17
66119;DHT22;52912;48.564;9.302;2024-01-15T03:30:08;-1.25;89.14
66119;DHT22;52912;48.564;9.302;2024-01-15T03:32:35;-1.26;88.96
66119;DHT22;52912;48.564;9.302;2024-01-15T03:35:00;-1.20;88.98
66119;DHT22;52912;48.564;9.302;2024-01-15T03:37:26;-1.24;88.94
66119;DHT22;52912;48.564;9.302;2024-01-15T03:39:51;-1.22;88.95
66119;DHT22;52912;48.564;9.302;2024-01-15T03:42:16;-1.25;89.09
66119;DHT22;52912;48.564;9.302;2024-01-15T03:44:42;-1.19;88.89
66119;DHT22;52912;48.564;9.302;2024-01-15T03:47:07;-1.13;88.96
66119;DHT22;52912;48.564;9.302;2024-01-15T03:49:34;-1.13;88.91
66119;DHT22;52912;48.564;9.302;2024-01-15T03:52:00;-1.12;88.80
66119;DHT22;52912;48.564;9.302;2024-01-15T03:54:25;-1.12;88.82
66119;DHT22;52912;48.564;9.302;2024-01-15T03:56:50;-1.09;88.87
66119;DHT22;52912;48.564;9.302;2024-01-15T03:59:16;-1.08;88.80
66119;DHT22;52912;48.564;9.302;2024-01-15T04:01:48;-1.08;88.89
66119;DHT22;52912;48.564;9.302;2024-01-15T04:04:13;-1.02;88.87
66119;DHT22;52912;48.564;9.302;2024-01-15T04:06:40;-1.08;89.00
66119;DHT22;52912;48.564;9.302;2024-01-15T04:09:06;-1.13;89.25
66119;DHT22;52912;48.564;9.302;2024-01-15T04:11:31;-1.05;89.31
66119;DHT22;52912;48.564;9.302;2024-01-15T04:13:56;-1.01;89.30
66119;DHT22;52912;48.564;9.302;2024-01-15T04:16:22;-0.91;89.34
66119;DHT22;52912;48.564;9.302;2024-01-15T04:18:47;-0.90;89.44
66119;DHT22;52912;48.564;9.302;2024-01-15T04:21:13;-0.91;89.44
66119;DHT22;52912;48.564;9.302;2024-01-15T04:23:40;-0.88;89.40
66119;DHT22;52912;48.564;9.302;2024-01-15T04:26:05;-0.77;89.22
66119;DHT22;52912;48.564;9.302;2024-01-15T04:28:31;-0.81;89.44
66119;DHT22;52912;48.564;9.302;2024-01-15T04:30:56;-0.87;89.46
66119;DHT22;52912;48.564;9.302;2024-01-15T04:33:21;-0.87;89.71
66119;DHT22;52912;48.564;9.302;2024-01-15T04:35:47;-0.84;89.81
66119;DHT22;52912;48.564;9.302;2024-01-15T04:38:12;-0.87;89.97
66119;DHT22;52912;48.564;9.302;2024-01-15T04:40:39;-0.87;90.08
66119;DHT22;52912;48.564;9.302;2024-01-15T04:43:05;-0.88;90.32
66119;DHT22;52912;48.564;9.302;2024-01-15T04:45:30;-0.85;90.44
66119;DHT22;52912;48.564;9.302;2024-01-15T04:47:56;-0.85;90.58
66119;DHT22;52912;48.564;9.302;2024-01-15T04:50:21;-0.85;90.50
66119;DHT22;52912;48.564;9.302;2024-01-15T04:52:47;-0.91;90.60
66119;DHT22;52912;48.564;9.302;2024-01-15T04:55:12;-0.91;90.72
66119;DHT22;52912;48.564;9.302;2024-01-15T04:57:39;-0.88;90.49
66119;DHT22;52912;48.564;9.302;2024-01-15T05:00:06;-0.92;90.73
66119;DHT22;52912;48.564;9.302;2024-01-15T05:02:32;-0.88;90.58
66119;DHT22;52912;48.564;9.302;2024-01-15T05:04:57;-0.91;90.56
66119;DHT22;52912;48.564;9.302;2024-01-15T05:07:22;-0.91;90.60
66119;DHT22;52912;48.564;9.302;2024-01-15T05:09:48;-0.90;90.69
66119;DHT22;52912;48.564;9.302;2024-01-15T05:12:13;-0.83;90.56
66119;DHT22;52912;48.564;9.302;2024-01-15T05:14:40;-0.92;90.58
66119;DHT22;52912;48.564;9.302;2024-01-15T05:17:05;-0.95;90.84
66119;DHT22;52912;48.564;9.302;2024-01-15T05:19:31;-0.99;90.93
66119;DHT22;52912;48.564;9.302;2024-01-15T05:21:56;-0.94;91.05
66119;DHT22;52912;48.564;9.302;2024-01-15T05:24:22;-0.91;91.00
66119;DHT22;52912;48.564;9.302;2024-01-15T05:26:47;-0.92;90.98
66119;DHT22;52912;48.564;9.302;2024-01-15T05:29:13;-0.97;91.13
66119;DHT22;52912;48.564;9.302;2024-01-15T05:31:39;-0.88;91.22
66119;DHT22;52912;48.564;9.302;2024-01-15T05:34:05;-0.90;90.94
66119;DHT22;52912;48.564;9.302;2024-01-15T05:36:30;-0.88;90.99
66119;DHT22;52912;48.564;9.302;2024-01-15T05:38:56;-0.88;91.22
66119;DHT22;52912;48.564;9.302;2024-01-15T05:41:21;-0.90;91.24
66119;DHT22;52912;48.564;9.302;2024-01-15T05:43:47;-0.85;91.25
66119;DHT22;52912;48.564;9.302;2024-01-15T05:46:12;-0.85;91.14
66119;DHT22;52912;48.564;9.302;2024-01-15T05:48:39;-0.87;91.07
66119;DHT22;52912;48.564;9.302;2024-01-15T05:51:04;-0.80;91.10
66119;DHT22;52912;48.564;9.302;2024-01-15T05:53:30;-0.83;90.90
66119;DHT22;52912;48.564;9.302;2024-01-15T05:55:55;-0.77;90.98
66119;DHT22;52912;48.564;9.302;2024-01-15T05:58:21;-0.77;91.13
66119;DHT22;52912;48.564;9.302;2024-01-15T06:00:46;-0.71;91.29
66119;DHT22;52912;48.564;9.302;2024-01-15T06:03:12;-0.74;91.11
66119;DHT22;52912;48.564;9.302;2024-01-15T06:05:38;-0.81;91.44
66119;DHT22;52912;48.564;9.302;2024-01-15T06:08:04;-0.80;91.64
66119;DHT22;52912;48.564;9.302;2024-01-15T06:10:29;-0.77;91.69
66119;DHT22;52912;48.564;9.302;2024-01-15T06:12:55;-0.74;91.78
66119;DHT22;52912;48.564;9.302;2024-01-15T06:15:21;-0.80;91.79
66119;DHT22;52912;48.564;9.302;2024-01-15T06:17:46;-0.83;91.78
66119;DHT22;52912;48.564;9.302;2024-01-15T06:20:12;-0.79;91.65
66119;DHT22;52912;48.564;9.302;2024-01-15T06:22:39;-0.79;91.55
66119;DHT22;52912;48.564;9.302;2024-01-15T06:25:06;-0.80;91.42
66119;DHT22;52912;48.564;9.302;2024-01-15T06:27:31;-0.80;91.47
66119;DHT22;52912;48.564;9.302;2024-01-15T06:29:57;-0.74;91.23
66119;DHT22;52912;48.564;9.302;2024-01-15T06:32:22;-0.76;90.94
66119;DHT22;52912;48.564;9.302;2024-01-15T06:34:48;-0.79;91.08
66119;DHT22;52912;48.564;9.302;2024-01-15T06:37:13;-0.79;91.00
66119;DHT22;52912;48.564;9.302;2024-01-15T06:39:40;-0.67;90.60
66119;DHT22;52912;48.564;9.302;2024-01-15T06:42:06;-0.74;90.50
66119;DHT22;52912;48.564;9.302;2024-01-15T06:44:31;-0.73;90.72
66119;DHT22;52912;48.564;9.302;2024-01-15T06:46:57;-0.66;90.28
66119;DHT22;52912;48.564;9.302;2024-01-15T06:49:22;-0.67;90.15
66119;DHT22;52912;48.564;9.302;2024-01-15T06:51:48;-0.64;89.97
66119;DHT22;52912;48.564;9.302;2024-01-15T06:54:13;-0.71;89.98
66119;DHT22;52912;48.564;9.302;2024-01-15T06:56:40;-0.67;89.72
66119;DHT22;52912;48.564;9.302;2024-01-15T06:59:05;-0.64;89.74
66119;DHT22;52912;48.564;9.302;2024-01-15T07:01:31;-0.71;89.57
66119;DHT22;52912;48.564;9.302;2024-01-15T07:03:56;-0.64;89.39
66119;DHT22;52912;48.564;9.302;2024-01-15T07:06:22;-0.67;89.23
66119;DHT22;52912;48.564;9.302;2024-01-15T07:08:47;-0.70;89.09
66119;DHT22;52912;48.564;9.302;2024-01-15T07:11:13;-0.67;89.18
66119;DHT22;52912;48.564;9.302;2024-01-15T07:13:39;-0.63;89.14
66119;DHT22;52912;48.564;9.302;2024-01-15T07:16:05;-0.62;88.92
66119;DHT22;52912;48.564;9.302;2024-01-15T07:18:30;-0.63;88.95
66119;DHT22;52912;48.564;9.302;2024-01-15T07:20:56;-0.63;88.75
66119;DHT22;52912;48.564;9.302;2024-01-15T07:23:21;-0.62;88.80
66119;DHT22;52912;48.564;9.302;2024-01-15T07:25:47;-0.64;88.75
66119;DHT22;52912;48.564;9.302;2024-01-15T07:28:12;-0.60;88.49
66119;DHT22;52912;48.564;9.302;2024-01-15T07:30:39;-0.60;88.29
66119;DHT22;52912;48.564;9.302;2024-01-15T07:33:04;-0.59;88.39
66119;DHT22;52912;48.564;9.302;2024-01-15T07:35:30;-0.57;88.28
66119;DHT22;52912;48.564;9.302;2024-01-15T07:37:55;-0.48;88.03
66119;DHT22;52912;48.564;9.302;2024-01-15T07:40:21;-0.52;87.93
66119;DHT22;52912;48.564;9.302;2024-01-15T07:42:46;-0.40;87.60
66119;DHT22;52912;48.564;9.302;2024-01-15T07:45:12;-0.33;87.35
66119;DHT22;52912;48.564;9.302;2024-01-15T07:47:39;-0.43;87.12
66119;DHT22;52912;48.564;9.302;2024-01-15T07:50:05;-0.39;86.96
66119;DHT22;52912;48.564;9.302;2024-01-15T07:52:30;-0.37;86.50
66119;DHT22;52912;48.564;9.302;2024-01-15T07:54:56;-0.37;86.36
66119;DHT22;52912;48.564;9.302;2024-01-15T07:57:21;-0.37;86.29
66119;DHT22;52912;48.564;9.302;2024-01-15T07:59:47;-0.30;86.10
66119;DHT22;52912;48.564;9.302;2024-01-15T08:02:12;-0.25;85.91
66119;DHT22;52912;48.564;9.302;2024-01-15T08:04:39;-0.29;85.76
66119;DHT22;52912;48.564;9.302;2024-01-15T08:07:04;-0.25;85.71
66119;DHT22;52912;48.564;9.302;2024-01-15T08:09:30;-0.26;85.69
66119;DHT22;52912;48.564;9.302;2024-01-15T08:11:55;-0.23;85.51
66119;DHT22;52912;48.564;9.302;2024-01-15T08:14:21;-0.15;85.00
66119;DHT22;52912;48.564;9.302;2024-01-15T08:16:46;-0.14;84.85
66119;DHT22;52912;48.564;9.302;2024-01-15T08:19:12;-0.17;84.85
66119;DHT22;52912;48.564;9.302;2024-01-15T08:21:39;-0.14;84.59
66119;DHT22;52912;48.564;9.302;2024-01-15T08:24:05;-0.15;84.19
66119;DHT22;52912;48.564;9.302;2024-01-15T08:26:30;-0.02;83.99
66119;DHT22;52912;48.564;9.302;2024-01-15T08:28:56;-0.08;83.74
66119;DHT22;52912;48.564;9.302;2024-01-15T08:31:22;0.03;83.61
66119;DHT22;52912;48.564;9.302;2024-01-15T08:33:48;0.03;83.36
66119;DHT22;52912;48.564;9.302;2024-01-15T08:36:13;0.03;83.16
66119;DHT22;52912;48.564;9.302;2024-01-15T08:38:40;0.03;82.82
66119;DHT22;52912;48.564;9.302;2024-01-15T08:41:05;0.14;82.83
66119;DHT22;52912;48.564;9.302;2024-01-15T08:43:31;0.16;82.39
66119;DHT22;52912;48.564;9.302;2024-01-15T08:45:56;0.11;82.45
66119;DHT22;52912;48.564;9.302;2024-01-15T08:48:22;0.20;82.51
66119;DHT22;52912;48.564;9.302;2024-01-15T08:50:47;0.16;82.62
66119;DHT22;52912;48.564;9.302;2024-01-15T08:53:13;0.17;82.58
66119;DHT22;52912;48.564;9.302;2024-01-15T08:55:40;0.21;82.52
66119;DHT22;52912;48.564;9.302;2024-01-15T08:58:06;0.17;82.55
66119;DHT22;52912;48.564;9.302;2024-01-15T09:00:31;0.26;82.66
66119;DHT22;52912;48.564;9.302;2024-01-15T09:02:57;0.34;82.64
66119;DHT22;52912;48.564;9.302;2024-01-15T09:05:22;0.36;82.01
66119;DHT22;52912;48.564;9.302;2024-01-15T09:07:48;0.31;82.24
66119;DHT22;52912;48.564;9.302;2024-01-15T09:10:13;0.36;82.26
66119;DHT22;52912;48.564;9.302;2024-01-15T09:12:40;0.43;82.20
66119;DHT22;52912;48.564;9.302;2024-01-15T09:15:06;0.40;82.15
66119;DHT22;52912;48.564;9.302;2024-01-15T09:17:32;0.41;82.09
66119;DHT22;52912;48.564;9.302;2024-01-15T09:19:57;0.47;81.96
66119;DHT22;52912;48.564;9.302;2024-01-15T09:22:23;0.51;82.45
66119;DHT22;52912;48.564;9.302;2024-01-15T09:24:48;0.51;82.32
66119;DHT22;52912;48.564;9.302;2024-01-15T09:27:14;0.48;81.83
66119;DHT22;52912;48.564;9.302;2024-01-15T09:29:41;0.48;81.79
66119;DHT22;52912;48.564;9.302;2024-01-15T09:32:06;0.54;81.20
66119;DHT22;52912;48.564;9.302;2024-01-15T09:34:32;0.53;81.09
66119;DHT22;52912;48.564;9.302;2024-01-15T09:36:57;0.60;80.95
66119;DHT22;52912;48.564;9.302;2024-01-15T09:39:23;0.69;80.80
66119;DHT22;52912;48.564;9.302;2024-01-15T09:41:49;0.78;80.28
66119;DHT22;52912;48.564;9.302;2024-01-15T09:44:14;0.66;80.27
66119;DHT22;52912;48.564;9.302;2024-01-15T09:46:42;0.73;79.99
66119;DHT22;52912;48.564;9.302;2024-01-15T09:49:08;0.81;80.20
66119;DHT22;52912;48.564;9.302;2024-01-15T09:51:33;0.83;80.02
66119;DHT22;52912;48.564;9.302;2024-01-15T09:53:59;0.92;80.03
66119;DHT22;52912;48.564;9.302;2024-01-15T09:56:24;0.95;79.62
66119;DHT22;52912;48.564;9.302;2024-01-15T09:58:50;0.95;79.47
66119;DHT22;52912;48.564;9.302;2024-01-15T10:01:17;1.00;79.27
66119;DHT22;52912;48.564;9.302;2024-01-15T10:03:44;1.10;78.81
66119;DHT22;52912;48.564;9.302;2024-01-15T10:06:11;1.13;78.98
66119;DHT22;52912;48.564;9.302;2024-01-15T10:08:39;1.16;78.93
66119;DHT22;52912;48.564;9.302;2024-01-15T10:11:04;1.20;78.99
66119;DHT22;52912;48.564;9.302;2024-01-15T10:13:30;1.28;78.80
66119;DHT22;52912;48.564;9.302;2024-01-15T10:15:55;1.24;78.69
66119;DHT22;52912;48.564;9.302;2024-01-15T10:18:21;1.27;78.64
66119;DHT22;52912;48.564;9.302;2024-01-15T10:20:48;1.30;78.60
66119;DHT22;52912;48.564;9.302;2024-01-15T10:23:14;1.30;78.90
66119;DHT22;52912;48.564;9.302;2024-01-15T10:25:41;1.24;79.10
66119;DHT22;52912;48.564;9.302;2024-01-15T10:28:07;1.27;78.93
66119;DHT22;52912;48.564;9.302;2024-01-15T10:30:32;1.30;78.75
66119;DHT22;52912;48.564;9.302;2024-01-15T10:32:58;1.31;78.65
66119;DHT22;52912;48.564;9.302;2024-01-15T10:35:26;1.31;78.58
66119;DHT22;52912;48.564;9.302;2024-01-15T10:37:53;1.35;78.56
66119;DHT22;52912;48.564;9.302;2024-01-15T10:40:19;1.33;78.53
66119;DHT22;52912;48.564;9.302;2024-01-15T10:42:44;1.30;78.71
66119;DHT22;52912;48.564;9.302;2024-01-15T10:45:10;1.37;78.74
66119;DHT22;52912;48.564;9.302;2024-01-15T10:47:35;1.35;78.79
66119;DHT22;52912;48.564;9.302;2024-01-15T10:50:01;1.40;78.61
66119;DHT22;52912;48.564;9.302;2024-01-15T10:52:27;1.44;78.76
66119;DHT22;52912;48.564;9.302;2024-01-15T10:54:54;1.48;78.71
66119;DHT22;52912;48.564;9.302;2024-01-15T10:57:21;1.56;78.57
66119;DHT22;52912;48.564;9.302;2024-01-15T10:59:47;1.52;78.62
66119;DHT22;52912;48.564;9.302;2024-01-15T11:02:13;1.54;78.56
66119;DHT22;52912;48.564;9.302;2024-01-15T11:04:39;1.55;78.66
66119;DHT22;52912;48.564;9.302;2024-01-15T11:07:05;1.55;78.62
66119;DHT22;52912;48.564;9.302;2024-01-15T11:09:30;1.58;78.57
66119;DHT22;52912;48.564;9.302;2024-01-15T11:12:09;1.54;79.04
66119;DHT22;52912;48.564;9.302;2024-01-15T11:14:35;1.61;78.86
66119;DHT22;52912;48.564;9.302;2024-01-15T11:17:00;1.66;78.96
66119;DHT22;52912;48.564;9.302;2024-01-15T11:19:35;1.50;78.76
66119;DHT22;52912;48.564;9.302;2024-01-15T11:22:01;1.48;79.19
66119;DHT22;52912;48.564;9.302;2024-01-15T11:24:36;1.50;79.62
66119;DHT22;52912;48.564;9.302;2024-01-15T11:27:02;1.45;79.44
66119;DHT22;52912;48.564;9.302;2024-01-15T11:29:33;1.43;79.96
66119;DHT22;52912;48.564;9.302;2024-01-15T11:32:00;1.35;80.20
66119;DHT22;52912;48.564;9.302;2024-01-15T11:34:52;1.33;80.35
66119;DHT22;52912;48.564;9.302;2024-01-15T11:37:17;1.38;80.18
66119;DHT22;52912;48.564;9.302;2024-01-15T11:39:43;1.41;80.30
66119;DHT22;52912;48.564;9.302;2024-01-15T11:42:10;1.38;80.16
66119;DHT22;52912;48.564;9.302;2024-01-15T11:44:38;1.44;80.39
66119;DHT22;52912;48.564;9.302;2024-01-15T11:47:05;1.40;80.41
66119;DHT22;52912;48.564;9.302;2024-01-15T11:49:53;1.40;80.75
66119;DHT22;52912;48.564;9.302;2024-01-15T11:52:23;1.41;80.72
66119;DHT22;52912;48.564;9.302;2024-01-15T11:54:52;1.45;80.94
66119;DHT22;52912;48.564;9.302;2024-01-15T11:57:25;1.43;81.35
66119;DHT22;52912;48.564;9.302;2024-01-15T11:59:56;1.30;82.70
66119;DHT22;52912;48.564;9.302;2024-01-15T12:02:22;1.13;84.90
66119;DHT22;52912;48.564;9.302;2024-01-15T12:04:47;1.12;85.45
66119;DHT22;52912;48.564;9.302;2024-01-15T12:07:13;1.03;85.59
66119;DHT22;52912;48.564;9.302;2024-01-15T12:09:43;1.03;85.89
66119;DHT22;52912;48.564;9.302;2024-01-15T12:12:09;1.00;85.98
66119;DHT22;52912;48.564;9.302;2024-01-15T12:14:38;0.95;86.27
66119;DHT22;52912;48.564;9.302;2024-01-15T12:17:05;1.04;85.91
66119;DHT22;52912;48.564;9.302;2024-01-15T12:19:31;1.15;85.87
66119;DHT22;52912;48.564;9.302;2024-01-15T12:21:56;1.13;85.61
66119;DHT22;52912;48.564;9.302;2024-01-15T12:24:22;1.12;85.06
66119;DHT22;52912;48.564;9.302;2024-01-15T12:26:47;1.24;85.38
66119;DHT22;52912;48.564;9.302;2024-01-15T12:29:13;1.22;85.40
66119;DHT22;52912;48.564;9.302;2024-01-15T12:31:38;1.22;85.34
66119;DHT22;52912;48.564;9.302;2024-01-15T12:34:05;1.23;85.11
66119;DHT22;52912;48.564;9.302;2024-01-15T12:36:31;1.23;85.16
66119;DHT22;52912;48.564;9.302;2024-01-15T12:38:59;1.30;84.89
66119;DHT22;52912;48.564;9.302;2024-01-15T12:41:24;1.20;85.98
66119;DHT22;52912;48.564;9.302;2024-01-15T12:43:50;1.17;87.06
66119;DHT22;52912;48.564;9.302;2024-01-15T12:46:15;1.15;87.30
66119;DHT22;52912;48.564;9.302;2024-01-15T12:48:41;1.15;87.77
66119;DHT22;52912;48.564;9.302;2024-01-15T12:51:08;1.12;87.20
66119;DHT22;52912;48.564;9.302;2024-01-15T12:53:33;1.07;88.14
66119;DHT22;52912;48.564;9.302;2024-01-15T12:55:59;0.96;89.12
66119;DHT22;52912;48.564;9.302;2024-01-15T12:58:24;0.88;90.42
66119;DHT22;52912;48.564;9.302;2024-01-15T13:00:50;0.78;91.09
66119;DHT22;52912;48.564;9.302;2024-01-15T13:03:15;0.73;90.82
66119;DHT22;52912;48.564;9.302;2024-01-15T13:05:41;0.82;90.67
66119;DHT22;52912;48.564;9.302;2024-01-15T13:08:08;0.86;89.94
66119;DHT22;52912;48.564;9.302;2024-01-15T13:10:33;0.90;89.53
66119;DHT22;52912;48.564;9.302;2024-01-15T13:12:58;0.85;90.44
66119;DHT22;52912;48.564;9.302;2024-01-15T13:15:24;0.82;91.17
66119;DHT22;52912;48.564;9.302;2024-01-15T13:17:49;0.81;92.10
66119;DHT22;52912;48.564;9.302;2024-01-15T13:20:15;0.73;92.81
66119;DHT22;52912;48.564;9.302;2024-01-15T13:22:40;0.61;93.81
66119;DHT22;52912;48.564;9.302;2024-01-15T13:25:08;0.68;93.50
66119;DHT22;52912;48.564;9.302;2024-01-15T13:27:33;0.71;93.19
66119;DHT22;52912;48.564;9.302;2024-01-15T13:29:58;0.71;92.67
66119;DHT22;52912;48.564;9.302;2024-01-15T13:32:25;0.64;92.62
66119;DHT22;52912;48.564;9.302;2024-01-15T13:34:50;0.64;93.11
66119;DHT22;52912;48.564;9.302;2024-01-15T13:37:15;0.55;93.76
66119;DHT22;52912;48.564;9.302;2024-01-15T13:39:41;0.50;94.31
66119;DHT22;52912;48.564;9.302;2024-01-15T13:42:08;0.50;94.95
66119;DHT22;52912;48.564;9.302;2024-01-15T13:44:34;0.48;95.43
66119;DHT22;52912;48.564;9.302;2024-01-15T13:46:59;0.50;96.03
66119;DHT22;52912;48.564;9.302;2024-01-15T13:49:25;0.43;96.13
66119;DHT22;52912;48.564;9.302;2024-01-15T13:51:50;0.36;96.21
66119;DHT22;52912;48.564;9.302;2024-01-15T13:54:16;0.31;96.51
66119;DHT22;52912;48.564;9.302;2024-01-15T13:56:41;0.30;97.27
66119;DHT22;52912;48.564;9.302;2024-01-15T13:59:08;0.21;97.43
66119;DHT22;52912;48.564;9.302;2024-01-15T14:01:33;0.20;98.24
66119;DHT22;52912;48.564;9.302;2024-01-15T14:04:00;0.21;98.54
66119;DHT22;52912;48.564;9.302;2024-01-15T14:06:25;0.20;98.69
66119;DHT22;52912;48.564;9.302;2024-01-15T14:08:51;0.19;99.15
66119;DHT22;52912;48.564;9.302;2024-01-15T14:11:16;0.16;99.28
66119;DHT22;52912;48.564;9.302;2024-01-15T14:13:42;0.13;99.28
66119;DHT22;52912;48.564;9.302;2024-01-15T14:16:08;0.17;99.29
66119;DHT22;52912;48.564;9.302;2024-01-15T14:18:34;0.19;99.39
66119;DHT22;52912;48.564;9.302;2024-01-15T14:20:59;0.23;99.49
66119;DHT22;52912;48.564;9.302;2024-01-15T14:23:25;0.17;99.38
66119;DHT22;52912;48.564;9.302;2024-01-15T14:25:50;0.20;99.47
66119;DHT22;52912;48.564;9.302;2024-01-15T14:28:15;0.19;99.83
66119;DHT22;52912;48.564;9.302;2024-01-15T14:30:41;0.19;99.92
66119;DHT22;52912;48.564;9.302;2024-01-15T14:33:08;0.19;99.99
66119;DHT22;52912;48.564;9.302;2024-01-15T14:35:33;0.19;99.99
66119;DHT22;52912;48.564;9.302;2024-01-15T14:37:59;0.11;99.99
66119;DHT22;52912;48.564;9.302;2024-01-15T14:40:25;0.06;99.99
66119;DHT22;52912;48.564;9.302;2024-01-15T14:42:50;0.13;99.99
66119;DHT22;52912;48.564;9.302;2024-01-15T14:45:15;0.10;99.99
66119;DHT22;52912;48.564;9.302;2024-01-15T14:47:41;0.10;99.99
66119;DHT22;52912;48.564;9.302;2024-01-15T14:50:09;0.09;99.99
66119;DHT22;52912;48.564;9.302;2024-01-15T14:52:34;0.05;99.99
66119;DHT22;52912;48.564;9.302;2024-01-15T14:55:00;0.00;99.99
66119;DHT22;52912;48.564;9.302;2024-01-15T14:57:25;0.03;99.99
66119;DHT22;52912;48.564;9.302;2024-01-15T14:59:50;0.02;99.99
66119;DHT22;52912;48.564;9.302;2024-01-15T15:02:16;-0.01;99.99
66119;DHT22;52912;48.564;9.302;2024-01-15T15:04:41;0.00;99.99
66119;DHT22;52912;48.564;9.302;2024-01-15T15:07:08;-0.05;99.99
66119;DHT22;52912;48.564;9.302;2024-01-15T15:09:34;-0.11;99.99
66119;DHT22;52912;48.564;9.302;2024-01-15T15:11:59;-0.01;99.99
66119;DHT22;52912;48.564;9.302;2024-01-15T15:14:24;-0.04;99.99
66119;DHT22;52912;48.564;9.302;2024-01-15T15:16:50;-0.02;99.99
66119;DHT22;52912;48.564;9.302;2024-01-15T15:19:15;0.00;99.99
66119;DHT22;52912;48.564;9.302;2024-01-15T15:21:41;0.02;99.99
66119;DHT22;52912;48.564;9.302;2024-01-15T15:24:08;0.02;99.99
66119;DHT22;52912;48.564;9.302;2024-01-15T15:26:33;0.05;99.99
66119;DHT22;52912;48.564;9.302;2024-01-15T15:28:58;-0.09;99.99